Time;durP1;ratioP1;P1;durP2;ratioP2;P2;SDS_P1;SDS_P2;PMS_P1;PMS_P2;Temp;Humidity;BMP_temperature;BMP_pressure;BME280_temperature;BME280_humidity;BME280_pressure;Samples;Min_cycle;Max_cycle;Signal;HPM_P1;HPM_P2
2022/03/19 00:01:04;;;;;;;;;;;;;;;1.67;54.29;100521.27;1708957;83;25047;-85
2022/03/19 00:03:30;;;;;;;;;;;;;;;1.67;54.36;100514.39;1731423;83;20293;-85
2022/03/19 00:05:59;;;;;;;;;;;;;;;1.68;54.42;100510.95;1729320;83;24300;-85
2022/03/19 00:08:26;;;;;;;;;;;;;;;1.68;54.49;100512.24;1730381;83;22084;-85
2022/03/19 00:10:52;;;;;;;;;;;;;;;1.65;54.51;100507.49;1729084;82;25985;-85
2022/03/19 00:13:19;;;;;;;;;;;;;;;1.58;54.52;100509.67;1731358;82;24439;-85
2022/03/19 00:15:45;;;;;;;;;;;;;;;1.53;54.58;100500.62;1737846;82;20285;-85
2022/03/19 00:18:11;;;;;;;;;;;;;;;1.47;54.60;100512.69;1722237;82;24237;-86
2022/03/19 00:20:38;;;;;;;;;;;;;;;1.36;54.59;100519.13;1705784;82;22029;-86
2022/03/19 00:23:06;;;;;;;;;;;;;;;1.20;54.55;100522.55;1715589;82;26754;-85
2022/03/19 00:25:38;;;;;;;;;;;;;;;1.04;54.52;100519.48;1706246;83;25251;-86
2022/03/19 00:28:07;;;;;;;;;;;;;;;0.99;54.54;100522.06;1710301;83;20218;-86
2022/03/19 00:30:33;;;;;;;;;;;;;;;1.00;54.63;100519.05;1734837;81;24571;-85
2022/03/19 00:32:59;;;;;;;;;;;;;;;0.91;54.69;100526.78;1704138;83;20927;-86
2022/03/19 00:35:25;;;;;;;;;;;;;;;0.81;54.73;100531.06;1705647;83;21025;-86
2022/03/19 00:37:53;;;;;;;;;;;;;;;0.69;54.80;100520.28;1720613;82;24387;-86
2022/03/19 00:40:23;;;;;;;;;;;;;;;0.66;54.88;100521.97;1735112;81;20246;-87
2022/03/19 00:42:49;;;;;;;;;;;;;;;0.59;54.97;100516.38;1730955;81;24700;-87
2022/03/19 00:45:16;;;;;;;;;;;;;;;0.48;55.00;100516.34;1727909;82;22075;-87
2022/03/19 00:47:43;;;;;;;;;;;;;;;0.38;55.10;100514.13;1697204;82;26118;-87
2022/03/19 00:50:15;;;;;;;;;;;;;;;0.38;55.22;100515.41;1739332;81;25270;-87
2022/03/19 00:52:43;;;;;;;;;;;;;;;0.48;55.38;100518.05;1742084;81;20165;-87
2022/03/19 00:55:09;;;;;;;;;;;;;;;0.50;55.55;100504.73;1736525;81;24748;-86
2022/03/19 00:57:39;;;;;;;;;;;;;;;0.54;55.70;100507.78;1738227;80;21982;-86
2022/03/19 01:00:11;;;;;;;;;;;;;;;0.61;55.86;100507.78;1739519;82;26037;-86
2022/03/19 01:02:36;;;;;;;;;;;;;;;0.78;56.10;100502.26;1736040;81;24552;-86
2022/03/19 01:05:02;;;;;;;;;;;;;;;0.95;56.29;100494.99;1733674;81;20313;-86
2022/03/19 01:07:31;;;;;;;;;;;;;;;0.97;56.41;100499.30;1736401;81;24516;-85
2022/03/19 01:09:57;;;;;;;;;;;;;;;0.93;56.48;100496.27;1740795;81;22155;-85
2022/03/19 01:12:23;;;;;;;;;;;;;;;0.88;56.54;100500.98;1724674;81;26996;-84
2022/03/19 01:14:49;;;;;;;;;;;;;;;0.79;56.58;100501.83;1736592;80;20429;-83
2022/03/19 01:17:15;;;;;;;;;;;;;;;0.67;56.60;100498.79;1739120;81;20545;-84
2022/03/19 01:19:54;;;;;;;;;;;;;;;0.64;56.66;100500.08;1743009;80;24509;-84
2022/03/19 01:22:21;;;;;;;;;;;;;;;0.68;56.78;100500.52;1734619;81;22799;-84
2022/03/19 01:24:47;;;;;;;;;;;;;;;0.73;56.93;100499.23;1741999;81;26799;-84
2022/03/19 01:27:14;;;;;;;;;;;;;;;0.77;57.06;100499.67;1771817;80;25427;-85
2022/03/19 01:29:40;;;;;;;;;;;;;;;0.61;57.08;100495.33;1780709;79;20210;-84
2022/03/19 01:32:07;;;;;;;;;;;;;;;0.37;57.05;100499.55;1778130;80;24439;-84
2022/03/19 01:34:33;;;;;;;;;;;;;;;0.28;57.09;100494.34;1776343;80;22188;-84
2022/03/19 01:36:59;;;;;;;;;;;;;;;0.33;57.24;100488.78;1778112;79;26244;-84
2022/03/19 01:39:25;;;;;;;;;;;;;;;0.49;57.42;100491.02;1777421;80;24464;-84
2022/03/19 01:41:51;;;;;;;;;;;;;;;0.57;57.59;100488.45;1777381;80;20647;-84
2022/03/19 01:44:19;;;;;;;;;;;;;;;0.48;57.65;100487.14;1778040;80;24762;-85
2022/03/19 01:46:57;;;;;;;;;;;;;;;0.29;57.66;100476.76;1778709;80;21672;-84
2022/03/19 01:49:24;;;;;;;;;;;;;;;0.16;57.71;100478.00;1756884;79;26079;-84
2022/03/19 01:51:50;;;;;;;;;;;;;;;0.03;57.76;100490.36;1783930;80;24407;-84
2022/03/19 01:54:16;;;;;;;;;;;;;;;-0.06;57.84;100486.91;1772798;80;20185;-85
2022/03/19 01:56:44;;;;;;;;;;;;;;;-0.06;57.95;100482.18;1780548;80;25291;-85
2022/03/19 01:59:13;;;;;;;;;;;;;;;0.00;58.15;100476.61;1773733;80;22731;-84
2022/03/19 02:01:40;;;;;;;;;;;;;;;0.08;58.35;100478.38;1776116;80;25976;-85
2022/03/19 02:04:06;;;;;;;;;;;;;;;0.10;58.52;100478.83;1778980;80;24463;-84
2022/03/19 02:06:32;;;;;;;;;;;;;;;0.09;58.64;100476.24;1774781;80;20238;-84
2022/03/19 02:08:59;;;;;;;;;;;;;;;0.06;58.81;100466.78;1777082;80;24600;-84
2022/03/19 02:11:26;;;;;;;;;;;;;;;0.08;58.97;100471.94;1782451;80;22076;-84
2022/03/19 02:13:53;;;;;;;;;;;;;;;0.19;59.19;100471.56;1776112;80;26184;-84
2022/03/19 02:16:20;;;;;;;;;;;;;;;0.15;59.32;100467.27;1775715;80;24485;-85
2022/03/19 02:18:46;;;;;;;;;;;;;;;-0.02;59.34;100461.61;1776696;80;20191;-85
2022/03/19 02:21:12;;;;;;;;;;;;;;;-0.20;59.35;100458.92;1778509;80;24699;-85
2022/03/19 02:26:23;;;;;;;;;;;;;;;-0.43;59.48;100469.06;1779651;80;26054;-83
2022/03/19 02:28:49;;;;;;;;;;;;;;;-0.50;59.60;100466.03;1775100;78;24483;-84
2022/03/19 02:31:15;;;;;;;;;;;;;;;-0.58;59.74;100461.25;1785408;80;20210;-84
2022/03/19 02:33:41;;;;;;;;;;;;;;;-0.61;59.86;100459.09;1773918;80;20252;-84
2022/03/19 02:36:08;;;;;;;;;;;;;;;-0.53;60.09;100456.13;1777690;80;21944;-85
2022/03/19 02:38:40;;;;;;;;;;;;;;;-0.45;60.33;100457.06;1777220;80;26010;-85
2022/03/19 02:41:06;;;;;;;;;;;;;;;-0.31;60.58;100454.56;1774541;80;24615;-85
2022/03/19 02:43:32;;;;;;;;;;;;;;;-0.19;60.85;100449.50;1777086;80;20363;-84
2022/03/19 02:45:58;;;;;;;;;;;;;;;-0.31;60.95;100450.28;1778171;80;24737;-85
2022/03/19 02:48:24;;;;;;;;;;;;;;;-0.41;61.04;100456.22;1780236;80;22039;-85
2022/03/19 02:50:50;;;;;;;;;;;;;;;-0.32;61.26;100456.69;1778464;80;25955;-85
2022/03/19 02:53:16;;;;;;;;;;;;;;;-0.33;61.42;100446.86;1780277;80;20425;-85
2022/03/19 02:55:44;;;;;;;;;;;;;;;-0.47;61.48;100445.47;1773493;80;20213;-85
2022/03/19 02:58:11;;;;;;;;;;;;;;;-0.51;61.59;100445.02;1778283;80;24715;-85
2022/03/19 03:00:38;;;;;;;;;;;;;;;-0.59;61.67;100439.37;1778878;80;22140;-85
2022/03/19 03:03:05;;;;;;;;;;;;;;;-0.65;61.78;100437.62;1776525;78;25709;-85
2022/03/19 03:05:33;;;;;;;;;;;;;;;-0.57;61.99;100440.25;1779589;79;24733;-85
2022/03/19 03:07:59;;;;;;;;;;;;;;;-0.44;62.26;100444.19;1691527;84;20171;-85
2022/03/19 03:10:26;;;;;;;;;;;;;;;-0.48;62.41;100448.88;1729589;82;20278;-85
2022/03/19 03:12:52;;;;;;;;;;;;;;;-0.62;62.45;100452.22;1730933;82;21947;-85
2022/03/19 03:15:18;;;;;;;;;;;;;;;-0.79;62.45;100448.23;1722099;82;26105;-85
2022/03/19 03:17:44;;;;;;;;;;;;;;;-0.91;62.46;100456.70;1711957;82;20372;-85
2022/03/19 03:20:10;;;;;;;;;;;;;;;-0.96;62.56;100456.22;1696119;84;20492;-85
2022/03/19 03:22:37;;;;;;;;;;;;;;;-0.94;62.73;100450.68;1715716;83;24558;-85
2022/03/19 03:25:04;;;;;;;;;;;;;;;-0.91;62.93;100445.55;1714135;82;22231;-85
2022/03/19 03:27:31;;;;;;;;;;;;;;;-0.92;63.09;100451.53;1710358;83;26075;-85
2022/03/19 03:29:57;;;;;;;;;;;;;;;-0.80;63.36;100449.50;1706642;82;24384;-85
2022/03/19 03:32:23;;;;;;;;;;;;;;;-0.77;63.56;100445.69;1725599;82;20239;-85
2022/03/19 03:34:49;;;;;;;;;;;;;;;-0.91;63.63;100446.42;1721536;82;20325;-86
2022/03/19 03:37:17;;;;;;;;;;;;;;;-1.02;63.73;100439.04;1773042;78;21980;-85
2022/03/19 03:39:42;;;;;;;;;;;;;;;-0.98;63.92;100444.63;1751673;80;26136;-86
2022/03/19 03:42:08;;;;;;;;;;;;;;;-0.98;64.09;100438.63;1771627;79;20334;-85
2022/03/19 03:44:35;;;;;;;;;;;;;;;-0.93;64.31;100431.85;1773828;79;20372;-85
2022/03/19 03:47:01;;;;;;;;;;;;;;;-0.73;64.58;100440.99;1776212;79;24615;-85
2022/03/19 03:49:27;;;;;;;;;;;;;;;-0.62;64.84;100437.66;1771765;79;21942;-86
2022/03/19 03:51:55;;;;;;;;;;;;;;;-0.48;65.06;100439.02;1779622;79;26027;-85
2022/03/19 03:54:21;;;;;;;;;;;;;;;-0.56;65.16;100435.13;1774910;79;24388;-85
2022/03/19 03:56:47;;;;;;;;;;;;;;;-0.82;65.09;100423.80;1786760;79;20532;-85
2022/03/19 03:59:19;;;;;;;;;;;;;;;-1.02;65.05;100430.05;1775844;79;24710;-85
2022/03/19 04:01:46;;;;;;;;;;;;;;;-1.15;65.04;100435.94;1774563;79;22104;-85
2022/03/19 04:04:12;;;;;;;;;;;;;;;-1.18;65.14;100442.31;1779764;79;26053;-84
2022/03/19 04:06:39;;;;;;;;;;;;;;;-1.22;65.22;100448.70;1770493;79;24440;-85
2022/03/19 04:09:05;;;;;;;;;;;;;;;-1.32;65.29;100445.19;1782478;78;20575;-85
2022/03/19 04:11:31;;;;;;;;;;;;;;;-1.42;65.32;100448.52;1777399;79;24623;-85
2022/03/19 04:13:59;;;;;;;;;;;;;;;-1.47;65.44;100452.28;1773207;79;21931;-85
2022/03/19 04:16:25;;;;;;;;;;;;;;;-1.42;65.64;100454.93;1776439;79;26015;-84
2022/03/19 04:18:53;;;;;;;;;;;;;;;-1.31;65.89;100453.34;1771598;79;25021;-85
2022/03/19 04:21:19;;;;;;;;;;;;;;;-1.13;66.19;100457.77;1767966;79;20159;-85
2022/03/19 04:23:45;;;;;;;;;;;;;;;-1.00;66.48;100457.05;1764654;79;24479;-85
2022/03/19 04:26:11;;;;;;;;;;;;;;;-0.82;66.81;100458.92;1770996;79;22049;-85
2022/03/19 04:28:37;;;;;;;;;;;;;;;-0.69;67.11;100451.30;1768570;80;26018;-86
2022/03/19 04:31:03;;;;;;;;;;;;;;;-0.65;67.25;100456.03;1768801;80;24575;-85
2022/03/19 04:33:31;;;;;;;;;;;;;;;-0.81;67.25;100450.34;1766898;80;20163;-85
2022/03/19 04:38:42;;;;;;;;;;;;;;;-0.83;67.35;100454.63;1765868;80;22151;-85
2022/03/19 04:41:08;;;;;;;;;;;;;;;-1.03;67.29;100450.58;1763849;80;26037;-85
2022/03/19 04:43:34;;;;;;;;;;;;;;;-1.23;67.17;100456.83;1762632;80;24443;-85
2022/03/19 04:46:00;;;;;;;;;;;;;;;-1.21;67.24;100458.14;1750669;80;20202;-85
2022/03/19 04:48:27;;;;;;;;;;;;;;;-1.18;67.37;100462.00;1763046;80;24774;-85
2022/03/19 04:50:54;;;;;;;;;;;;;;;-1.28;67.36;100468.34;1702403;82;21943;-84
2022/03/19 04:53:20;;;;;;;;;;;;;;;-1.42;67.26;100466.03;1752241;80;26069;-84
2022/03/19 04:55:47;;;;;;;;;;;;;;;-1.45;67.29;100471.15;1766335;80;24482;-85
2022/03/19 04:58:14;;;;;;;;;;;;;;;-1.39;67.42;100468.66;1760593;80;20236;-86
2022/03/19 05:00:41;;;;;;;;;;;;;;;-1.29;67.63;100461.90;1774511;79;24733;-85
2022/03/19 05:03:07;;;;;;;;;;;;;;;-1.19;67.85;100464.98;1725602;82;21992;-84
2022/03/19 05:05:34;;;;;;;;;;;;;;;-1.12;68.05;100465.50;1704804;83;26068;-84
2022/03/19 05:08:01;;;;;;;;;;;;;;;-1.18;68.11;100462.00;1706408;83;24651;-84
2022/03/19 05:13:11;;;;;;;;;;;;;;;-1.52;68.02;100459.50;1733832;82;25292;-84
2022/03/19 05:15:37;;;;;;;;;;;;;;;-1.74;67.95;100463.11;1701088;82;22056;-84
2022/03/19 05:18:05;;;;;;;;;;;;;;;-1.87;67.95;100462.53;1710219;82;21458;-84
2022/03/19 05:20:31;;;;;;;;;;;;;;;-1.95;67.99;100459.41;1732673;82;24579;-85
2022/03/19 05:22:58;;;;;;;;;;;;;;;-1.94;68.13;100460.73;1732963;81;20212;-85
2022/03/19 05:25:24;;;;;;;;;;;;;;;-1.82;68.43;100462.17;1715984;82;24533;-83
2022/03/19 05:27:52;;;;;;;;;;;;;;;-1.77;68.68;100460.94;1707873;83;22689;-84
2022/03/19 05:30:18;;;;;;;;;;;;;;;-1.75;68.88;100465.26;1715999;82;26032;-84
2022/03/19 05:32:44;;;;;;;;;;;;;;;-1.80;69.01;100463.03;1724484;81;20265;-84
2022/03/19 05:35:10;;;;;;;;;;;;;;;-1.89;69.12;100462.92;1723845;82;20463;-85
2022/03/19 05:37:39;;;;;;;;;;;;;;;-1.96;69.25;100454.70;1720040;82;25306;-85
2022/03/19 05:40:06;;;;;;;;;;;;;;;-1.94;69.44;100458.58;1714635;82;22093;-85
2022/03/19 05:42:32;;;;;;;;;;;;;;;-1.86;69.70;100460.42;1724996;82;26218;-85
2022/03/19 05:44:59;;;;;;;;;;;;;;;-1.74;70.03;100454.55;1719797;82;24467;-85
2022/03/19 05:47:25;;;;;;;;;;;;;;;-1.64;70.31;100457.69;1720344;82;20210;-85
2022/03/19 05:49:51;;;;;;;;;;;;;;;-1.57;70.58;100461.16;1720992;82;24601;-85
2022/03/19 05:52:18;;;;;;;;;;;;;;;-1.55;70.82;100456.50;1692286;82;22239;-85
2022/03/19 05:54:44;;;;;;;;;;;;;;;-1.50;71.05;100462.54;1727401;82;26048;-85
2022/03/19 05:57:10;;;;;;;;;;;;;;;-1.46;71.28;100453.16;1721685;82;24457;-86
2022/03/19 05:59:36;;;;;;;;;;;;;;;-1.29;71.66;100457.63;1726221;80;20343;-86
2022/03/19 06:02:05;;;;;;;;;;;;;;;-1.21;71.98;100458.14;1718397;82;24576;-85
2022/03/19 06:04:31;;;;;;;;;;;;;;;-1.11;72.30;100455.66;1722150;82;22872;-85
2022/03/19 06:06:57;;;;;;;;;;;;;;;-0.91;72.71;100457.12;1734777;81;26063;-85
2022/03/19 06:09:26;;;;;;;;;;;;;;;-0.78;73.06;100463.23;1742717;80;24573;-86
2022/03/19 06:11:52;;;;;;;;;;;;;;;-0.66;73.34;100463.34;1731531;81;20450;-85
2022/03/19 06:14:19;;;;;;;;;;;;;;;-0.48;73.69;100468.17;1723290;82;24561;-86
2022/03/19 06:16:45;;;;;;;;;;;;;;;-0.38;73.99;100461.38;1726973;82;22095;-86
2022/03/19 06:19:11;;;;;;;;;;;;;;;-0.34;74.23;100467.00;1726458;82;26066;-86
2022/03/19 06:21:40;;;;;;;;;;;;;;;-0.39;74.30;100466.11;1723968;82;24462;-85
2022/03/19 06:24:07;;;;;;;;;;;;;;;-0.50;74.34;100463.89;1720440;82;20334;-85
2022/03/19 06:26:34;;;;;;;;;;;;;;;-0.59;74.32;100462.09;1725792;81;25167;-84
2022/03/19 06:29:00;;;;;;;;;;;;;;;-0.61;74.36;100463.81;1720032;82;21992;-84
2022/03/19 06:31:31;;;;;;;;;;;;;;;-0.67;74.42;100465.47;1719887;82;26684;-84
2022/03/19 06:33:54;;;;;;;;;;;;;;;-0.69;74.52;100469.72;1715742;82;24456;-85
2022/03/19 06:39:05;;;;;;;;;;;;;;;-0.69;74.82;100471.88;1723010;82;24595;-85
2022/03/19 06:41:32;;;;;;;;;;;;;;;-0.72;74.93;100477.00;1727131;82;22094;-85
2022/03/19 06:43:59;;;;;;;;;;;;;;;-0.78;75.04;100470.52;1725755;82;26207;-84
2022/03/19 06:46:25;;;;;;;;;;;;;;;-0.80;75.17;100467.06;1724976;82;24478;-85
2022/03/19 06:48:51;;;;;;;;;;;;;;;-0.82;75.29;100473.92;1725823;82;20518;-84
2022/03/19 06:51:18;;;;;;;;;;;;;;;-0.84;75.41;100471.75;1719157;82;24686;-84
2022/03/19 06:53:44;;;;;;;;;;;;;;;-0.80;75.56;100470.92;1722098;82;22035;-86
2022/03/19 06:56:10;;;;;;;;;;;;;;;-0.79;75.78;100467.51;1718717;82;26196;-84
2022/03/19 06:58:37;;;;;;;;;;;;;;;-0.76;75.94;100470.55;1721268;82;24468;-84
2022/03/19 07:01:04;;;;;;;;;;;;;;;-0.69;76.22;100463.30;1726178;82;20166;-83
2022/03/19 07:03:30;;;;;;;;;;;;;;;-0.61;76.52;100463.81;1729710;81;24509;-85
2022/03/19 07:05:57;;;;;;;;;;;;;;;-0.60;76.74;100461.65;1720538;82;22644;-85
2022/03/19 07:08:23;;;;;;;;;;;;;;;-0.64;76.84;100461.62;1727869;82;26064;-84
2022/03/19 07:10:49;;;;;;;;;;;;;;;-0.60;77.01;100460.36;1726528;82;24505;-86
2022/03/19 07:13:15;;;;;;;;;;;;;;;-0.57;77.14;100459.54;1723836;82;20243;-85
2022/03/19 07:15:41;;;;;;;;;;;;;;;-0.50;77.33;100458.32;1724268;82;24522;-85
2022/03/19 07:18:08;;;;;;;;;;;;;;;-0.46;77.45;100461.34;1720905;82;20296;-84
2022/03/19 07:20:34;;;;;;;;;;;;;;;-0.44;77.54;100462.19;1726326;80;26052;-85
2022/03/19 07:23:02;;;;;;;;;;;;;;;-0.43;77.55;100460.48;1778507;79;24402;-85
2022/03/19 07:25:32;;;;;;;;;;;;;;;-0.45;77.51;100464.78;1773368;79;20486;-86
2022/03/19 07:27:59;;;;;;;;;;;;;;;-0.41;77.50;100462.66;1768300;79;24628;-86
2022/03/19 07:30:25;;;;;;;;;;;;;;;-0.37;77.51;100462.23;1763641;80;22631;-85
2022/03/19 07:32:53;;;;;;;;;;;;;;;-0.34;77.51;100464.84;1763888;81;26667;-86
2022/03/19 07:35:19;;;;;;;;;;;;;;;-0.33;77.52;100458.44;1762549;81;24397;-86
2022/03/19 07:37:50;;;;;;;;;;;;;;;-0.26;77.57;100454.16;1729887;81;20320;-85
2022/03/19 07:40:15;;;;;;;;;;;;;;;-0.20;77.66;100460.63;1749123;80;25199;-85
2022/03/19 07:42:44;;;;;;;;;;;;;;;-0.18;77.67;100455.09;1769154;80;22029;-85
2022/03/19 07:45:10;;;;;;;;;;;;;;;-0.11;77.70;100459.42;1764785;80;25826;-84
2022/03/19 07:47:37;;;;;;;;;;;;;;;-0.07;77.73;100457.29;1764678;80;24364;-85
2022/03/19 07:50:03;;;;;;;;;;;;;;;-0.02;77.75;100458.17;1732916;81;20249;-86
2022/03/19 07:52:33;;;;;;;;;;;;;;;0.02;77.74;100457.33;1753470;81;24544;-85
2022/03/19 07:54:58;;;;;;;;;;;;;;;0.06;77.69;100459.48;1678671;84;22018;-85
2022/03/19 07:57:24;;;;;;;;;;;;;;;0.16;77.73;100458.27;1703500;83;26022;-86
2022/03/19 07:59:51;;;;;;;;;;;;;;;0.25;77.80;100455.73;1698901;83;24500;-85
2022/03/19 08:02:17;;;;;;;;;;;;;;;0.35;77.87;100460.47;1687627;82;20929;-85
2022/03/19 08:04:44;;;;;;;;;;;;;;;0.40;77.86;100458.77;1718785;82;24609;-85
2022/03/19 08:07:10;;;;;;;;;;;;;;;0.47;77.82;100464.39;1686137;83;22203;-84
2022/03/19 08:09:38;;;;;;;;;;;;;;;0.55;77.79;100465.25;1705696;83;26013;-85
2022/03/19 08:12:05;;;;;;;;;;;;;;;0.65;77.79;100467.45;1706107;83;24592;-84
2022/03/19 08:14:32;;;;;;;;;;;;;;;0.72;77.72;100468.73;1676510;83;20269;-84
2022/03/19 08:17:00;;;;;;;;;;;;;;;0.78;77.60;100467.47;1704555;83;24615;-84
2022/03/19 08:19:28;;;;;;;;;;;;;;;0.83;77.42;100463.61;1705109;83;22055;-84
2022/03/19 08:21:54;;;;;;;;;;;;;;;0.89;77.26;100461.47;1706213;83;26637;-84
2022/03/19 08:24:23;;;;;;;;;;;;;;;0.99;77.14;100463.20;1699064;83;24474;-84
2022/03/19 08:26:48;;;;;;;;;;;;;;;1.10;77.14;100462.35;1701295;83;20239;-84
2022/03/19 08:29:14;;;;;;;;;;;;;;;1.21;77.12;100458.06;1696905;84;24740;-84
2022/03/19 08:31:40;;;;;;;;;;;;;;;1.32;77.09;100455.91;1699924;83;22834;-84
2022/03/19 08:34:07;;;;;;;;;;;;;;;1.42;77.07;100461.52;1695602;84;26088;-86
2022/03/19 08:36:34;;;;;;;;;;;;;;;1.48;76.92;100458.91;1693009;84;24546;-85
2022/03/19 08:41:45;;;;;;;;;;;;;;;1.62;76.45;100452.03;1693502;84;25182;-84
2022/03/19 08:44:11;;;;;;;;;;;;;;;1.75;76.22;100451.13;1694350;84;21952;-83
2022/03/19 08:46:37;;;;;;;;;;;;;;;1.84;76.04;100452.42;1691518;84;26087;-84
2022/03/19 08:49:04;;;;;;;;;;;;;;;1.89;75.74;100458.86;1692539;83;24489;-84
2022/03/19 08:51:39;;;;;;;;;;;;;;;1.93;75.43;100451.52;1694722;84;20249;-84
2022/03/19 08:54:07;;;;;;;;;;;;;;;2.01;75.01;100451.09;1697085;84;24532;-84
2022/03/19 08:56:38;;;;;;;;;;;;;;;2.10;74.71;100450.62;1695575;83;21999;-84
2022/03/19 08:59:02;;;;;;;;;;;;;;;2.18;74.44;100451.03;1694202;83;26011;-83
2022/03/19 09:01:28;;;;;;;;;;;;;;;2.19;74.06;100449.71;1699224;82;24482;-85
2022/03/19 09:03:55;;;;;;;;;;;;;;;2.27;73.78;100456.15;1700336;83;20289;-85
2022/03/19 09:06:21;;;;;;;;;;;;;;;2.33;73.45;100449.23;1693225;84;24611;-85
2022/03/19 09:08:50;;;;;;;;;;;;;;;2.37;73.13;100449.64;1696057;84;22160;-85
2022/03/19 09:11:19;;;;;;;;;;;;;;;2.44;72.83;100449.19;1746780;81;26276;-85
2022/03/19 09:13:46;;;;;;;;;;;;;;;2.55;72.67;100438.80;1744912;82;24411;-85
2022/03/19 09:16:12;;;;;;;;;;;;;;;2.62;72.44;100436.15;1745279;81;20568;-85
2022/03/19 09:18:38;;;;;;;;;;;;;;;2.71;72.13;100438.70;1746824;81;24526;-85
2022/03/19 09:21:04;;;;;;;;;;;;;;;2.83;71.90;100436.48;1746623;82;21935;-85
2022/03/19 09:23:30;;;;;;;;;;;;;;;2.89;71.58;100434.69;1746478;82;26063;-85
2022/03/19 09:26:02;;;;;;;;;;;;;;;2.89;71.04;100432.09;1746729;81;24427;-85
2022/03/19 09:28:28;;;;;;;;;;;;;;;2.94;70.53;100424.34;1776158;79;20438;-86
2022/03/19 09:30:54;;;;;;;;;;;;;;;3.03;70.17;100428.14;1784423;80;24583;-86
2022/03/19 09:33:21;;;;;;;;;;;;;;;3.09;69.78;100429.81;1776685;80;22751;-86
2022/03/19 09:35:47;;;;;;;;;;;;;;;3.17;69.46;100430.16;1774305;80;25979;-85
2022/03/19 09:38:14;;;;;;;;;;;;;;;3.22;69.09;100427.53;1777387;79;24685;-86
2022/03/19 09:40:41;;;;;;;;;;;;;;;3.30;68.79;100426.63;1782092;80;20195;-85
2022/03/19 09:43:08;;;;;;;;;;;;;;;3.40;68.50;100426.09;1782555;80;24552;-85
2022/03/19 09:45:35;;;;;;;;;;;;;;;3.44;68.08;100420.48;1785484;78;21995;-85
2022/03/19 09:48:02;;;;;;;;;;;;;;;3.48;67.64;100419.14;1775445;80;26032;-86
2022/03/19 09:50:28;;;;;;;;;;;;;;;3.57;67.39;100422.92;1790062;80;24499;-86
2022/03/19 09:52:55;;;;;;;;;;;;;;;3.64;67.11;100418.11;1785300;80;20254;-86
2022/03/19 09:55:26;;;;;;;;;;;;;;;3.69;66.67;100415.03;1784534;80;25436;-85
2022/03/19 09:57:52;;;;;;;;;;;;;;;3.80;66.34;100420.09;1783945;80;22102;-86
2022/03/19 10:00:19;;;;;;;;;;;;;;;3.85;65.89;100414.87;1779082;80;26059;-86
2022/03/19 10:02:55;;;;;;;;;;;;;;;3.92;65.39;100423.00;1782903;78;24501;-86
2022/03/19 10:10:53;;;;;;;;;;;;;;;4.05;63.74;100418.08;1736922;82;22166;-86
2022/03/19 10:13:19;;;;;;;;;;;;;;;4.16;63.34;100411.89;1698296;84;25961;-86
2022/03/19 10:15:46;;;;;;;;;;;;;;;4.26;62.98;100410.04;1724877;82;24333;-87
2022/03/19 10:18:12;;;;;;;;;;;;;;;4.35;62.72;100410.37;1726581;81;20315;-86
2022/03/19 10:20:38;;;;;;;;;;;;;;;4.45;62.48;100411.53;1724106;82;24668;-87
2022/03/19 10:23:04;;;;;;;;;;;;;;;4.53;62.18;100408.38;1723343;82;22163;-87
2022/03/19 10:25:31;;;;;;;;;;;;;;;4.59;61.81;100405.70;1734920;82;25917;-86
2022/03/19 10:28:08;;;;;;;;;;;;;;;4.67;61.45;100412.09;1718219;82;24461;-87
2022/03/19 10:30:36;;;;;;;;;;;;;;;4.73;61.01;100405.52;1714908;82;20464;-87
2022/03/19 10:33:03;;;;;;;;;;;;;;;4.77;60.49;100399.84;1722408;83;24928;-87
2022/03/19 10:35:31;;;;;;;;;;;;;;;4.77;59.89;100396.80;1725541;81;22153;-87
2022/03/19 10:37:57;;;;;;;;;;;;;;;4.80;59.40;100394.62;1710232;82;26073;-86
2022/03/19 10:40:25;;;;;;;;;;;;;;;4.90;59.11;100397.48;1717780;82;24533;-86
2022/03/19 10:42:53;;;;;;;;;;;;;;;4.97;58.78;100393.45;1725826;81;20209;-84
2022/03/19 10:45:21;;;;;;;;;;;;;;;5.04;58.39;100399.41;1713384;83;24533;-86
2022/03/19 10:47:48;;;;;;;;;;;;;;;5.15;58.10;100394.05;1722619;82;22121;-86
2022/03/19 10:50:24;;;;;;;;;;;;;;;5.27;57.88;100392.55;1722076;83;26886;-86
2022/03/19 10:52:51;;;;;;;;;;;;;;;5.37;57.57;100390.20;1698967;82;26082;-86
2022/03/19 10:55:18;;;;;;;;;;;;;;;5.46;57.32;100389.59;1712945;83;20212;-85
2022/03/19 10:57:45;;;;;;;;;;;;;;;5.51;56.99;100387.38;1701467;83;24561;-87
2022/03/19 11:00:12;;;;;;;;;;;;;;;5.54;56.60;100389.91;1718059;83;21937;-86
2022/03/19 11:02:45;;;;;;;;;;;;;;;5.58;56.26;100383.33;1718326;82;26011;-86
2022/03/19 11:05:12;;;;;;;;;;;;;;;5.68;55.99;100382.27;1712721;82;24458;-85
2022/03/19 11:07:42;;;;;;;;;;;;;;;5.77;55.73;100382.11;1726398;83;20255;-86
2022/03/19 11:10:08;;;;;;;;;;;;;;;5.81;55.38;100380.30;1716554;81;24711;-85
2022/03/19 11:12:36;;;;;;;;;;;;;;;5.87;55.09;100384.11;1714153;82;22121;-85
2022/03/19 11:15:04;;;;;;;;;;;;;;;5.89;54.71;100374.55;1721389;82;26047;-85
2022/03/19 11:17:32;;;;;;;;;;;;;;;5.99;54.52;100365.69;1715945;82;24518;-85
2022/03/19 11:20:04;;;;;;;;;;;;;;;6.06;54.24;100368.98;1715621;83;20211;-87
2022/03/19 11:22:44;;;;;;;;;;;;;;;6.13;53.95;100364.09;1709657;82;24866;-86
2022/03/19 11:25:22;;;;;;;;;;;;;;;6.20;53.65;100363.94;1732229;80;22101;-86
2022/03/19 11:27:49;;;;;;;;;;;;;;;6.32;53.41;100360.66;1707069;82;26196;-86
2022/03/19 11:30:17;;;;;;;;;;;;;;;6.38;53.10;100352.73;1732739;82;24534;-85
2022/03/19 11:32:57;;;;;;;;;;;;;;;6.41;52.75;100353.50;1730127;82;20220;-85
2022/03/19 11:35:26;;;;;;;;;;;;;;;6.43;52.39;100354.34;1723807;82;24526;-85
2022/03/19 11:38:03;;;;;;;;;;;;;;;6.48;52.07;100360.73;1722200;81;21968;-85
2022/03/19 11:40:32;;;;;;;;;;;;;;;6.54;51.79;100346.30;1724774;82;26802;-86
2022/03/19 11:43:01;;;;;;;;;;;;;;;6.58;51.43;100344.88;1722189;82;25080;-87
2022/03/19 11:45:29;;;;;;;;;;;;;;;6.67;51.14;100347.70;1724777;82;20524;-86
2022/03/19 11:47:55;;;;;;;;;;;;;;;6.71;50.82;100340.22;1724616;81;24629;-86
2022/03/19 11:50:26;;;;;;;;;;;;;;;6.73;50.52;100339.75;1724646;82;22005;-86
2022/03/19 11:52:56;;;;;;;;;;;;;;;6.75;50.17;100335.37;1724173;82;26771;-87
2022/03/19 11:55:31;;;;;;;;;;;;;;;6.81;49.88;100340.44;1727658;82;24412;-86
2022/03/19 11:58:03;;;;;;;;;;;;;;;6.83;49.47;100333.44;1723984;81;20511;-85
2022/03/19 12:00:29;;;;;;;;;;;;;;;6.94;49.35;100327.96;1721985;81;24834;-85
2022/03/19 12:03:03;;;;;;;;;;;;;;;7.01;49.08;100330.38;1723540;82;21987;-85
2022/03/19 12:05:30;;;;;;;;;;;;;;;7.06;48.84;100332.42;1783829;79;26033;-86
2022/03/19 12:08:00;;;;;;;;;;;;;;;7.17;48.78;100324.34;1776687;79;24418;-86
2022/03/19 12:10:24;;;;;;;;;;;;;;;7.28;48.67;100324.06;1776451;79;20431;-85
2022/03/19 12:12:50;;;;;;;;;;;;;;;7.37;48.56;100330.31;1770873;79;24546;-86
2022/03/19 12:15:33;;;;;;;;;;;;;;;7.39;48.33;100323.33;1775147;79;22024;-87
2022/03/19 12:18:18;;;;;;;;;;;;;;;7.45;48.19;100326.62;1783624;79;27270;-85
2022/03/19 12:20:44;;;;;;;;;;;;;;;7.50;47.95;100326.50;1779908;79;24668;-85
2022/03/19 12:23:11;;;;;;;;;;;;;;;7.59;47.78;100330.15;1777401;79;20416;-85
2022/03/19 12:25:39;;;;;;;;;;;;;;;7.67;47.69;100320.38;1778729;79;24773;-85
2022/03/19 12:28:05;;;;;;;;;;;;;;;7.71;47.44;100327.20;1777828;79;22043;-85
2022/03/19 12:30:35;;;;;;;;;;;;;;;7.69;47.06;100319.05;1771735;80;26087;-85
2022/03/19 12:33:01;;;;;;;;;;;;;;;7.67;46.69;100326.90;1784451;80;24679;-85
2022/03/19 12:35:29;;;;;;;;;;;;;;;7.69;46.44;100319.88;1778498;78;20241;-85
2022/03/19 12:37:57;;;;;;;;;;;;;;;7.64;46.07;100321.75;1773535;80;24592;-85
2022/03/19 12:40:24;;;;;;;;;;;;;;;7.63;45.74;100318.77;1773891;80;22014;-86
2022/03/19 12:42:54;;;;;;;;;;;;;;;7.61;45.46;100319.25;1780479;80;26030;-85
2022/03/19 12:45:37;;;;;;;;;;;;;;;7.58;45.14;100326.69;1775446;80;24430;-86
2022/03/19 12:48:10;;;;;;;;;;;;;;;7.59;44.80;100318.42;1761304;80;20202;-86
2022/03/19 12:50:37;;;;;;;;;;;;;;;7.52;44.52;100296.92;1782897;78;24714;-86
2022/03/19 12:53:03;;;;;;;;;;;;;;;7.63;44.27;100320.52;1767985;80;22003;-86
2022/03/19 12:55:30;;;;;;;;;;;;;;;7.67;44.19;100317.78;1765287;80;26178;-85
2022/03/19 12:57:57;;;;;;;;;;;;;;;7.72;44.05;100313.73;1759934;80;24460;-85
2022/03/19 13:00:24;;;;;;;;;;;;;;;7.75;43.90;100312.33;1762435;80;20189;-85
2022/03/19 13:02:51;;;;;;;;;;;;;;;7.70;43.56;100306.39;1769565;80;24642;-86